Hauptseite
METAR-TAF:

METAR-TAF

Flughäfen :

Mannheim, Deutschland

City-Airport Mannheim

Breite: 49-28-21N, Länge: 008-30-56E, Höhe: 100 m

Beobachtung

Neuester Wetterbericht von vor 36 Minuten, um 05:20 UTC
Wind 8 kt aus West/Südwest
Temperatur 10°C
Luftfeuchtigkeit 71%
Luftdruck 1018 hPa
Sichtweite 10 km oder mehr
Leicht bewölkt in der Höhe von 1800 ft
Durchbrochene Bewölkung in der Höhe von 8900 ft

METAR: EDFM 260520Z 25008KT 9999 FEW018 BKN089 10/05 Q1018

Zeit: 07:56 (05:56 UTC)

Prognose

Neuester Wetterbericht von vor 56 Minuten, um 05:00 UTC
Gültige Prognose vom 26 um 06 UTC bis 26 um 15 UTC
Wind 6 kt aus West/Südwest
Sichtweite 10 km oder mehr
Leicht bewölkt in der Höhe von 3500 ft
Übergehend zu
vom 26 um 07 UTC bis 26 um 09 UTC
Wind 11 kt aus West

TAF: EDFM 260500Z 2606/2615 24006KT 9999 FEW035 BECMG 2607/2609 26011KT

Wetterbeobachtungen und Prognosen von mehr als 4000 Flughäfen (METAR und TAF Bericht).

Die verfügbaren Stationen werden durch gelbe und rote Markierungen auf der Karte dargestellt.

Führen Sie die Maus auf sie, um den Namen der Station zu sehen.

Darauf klicken, um die Beobachtung von Wetterbeobachtungen und Prognosen zu sehen.

Um die Karte zu ändern : klicken Sie auf den grünen Tasten mit einem schwarzen Kreuz Zum Vergrößern, auf den grünen Button mit einem Gedankenstrich zu verkleinern, oder auf die grünen Pfeile für benachbarte Karten.


METAR-TAF: